createdAt,value
2019-02-27T00:00:43.817Z,7.90
2019-02-27T00:03:13.595Z,7.88
2019-02-27T00:05:45.588Z,7.88
2019-02-27T00:08:17.569Z,7.86
2019-02-27T00:10:49.530Z,7.86
2019-02-27T00:13:24.670Z,7.84
2019-02-27T00:15:55.160Z,7.82
2019-02-27T00:18:27.697Z,7.82
2019-02-27T00:20:59.666Z,7.79
2019-02-27T00:23:31.692Z,7.77
2019-02-27T00:26:04.202Z,7.77
2019-02-27T00:28:36.177Z,7.76
2019-02-27T00:31:11.249Z,7.75
2019-02-27T00:33:42.111Z,7.74
2019-02-27T00:36:14.068Z,7.73
2019-02-27T00:38:46.071Z,7.73
2019-02-27T00:41:18.027Z,7.72
2019-02-27T00:43:50.010Z,7.69
2019-02-27T00:46:21.975Z,7.69
2019-02-27T00:48:53.950Z,7.67
2019-02-27T00:51:25.925Z,7.67
2019-02-27T00:53:58.447Z,7.68
2019-02-27T00:56:30.965Z,7.67
2019-02-27T00:59:03.220Z,7.65
2019-02-27T01:01:35.204Z,7.64
2019-02-27T01:04:07.591Z,7.64
2019-02-27T01:06:39.563Z,7.62
2019-02-27T01:09:11.656Z,7.60
2019-02-27T01:11:43.652Z,7.59
2019-02-27T01:14:15.631Z,7.57
2019-02-27T01:16:49.941Z,7.56
2019-02-27T01:19:21.267Z,7.55
2019-02-27T01:21:53.264Z,7.54
2019-02-27T01:24:25.229Z,7.52
2019-02-27T01:26:57.486Z,7.52
2019-02-27T01:29:29.463Z,7.51
2019-02-27T01:32:01.830Z,7.50
2019-02-27T01:34:33.795Z,7.48
2019-02-27T01:37:05.789Z,7.46
2019-02-27T01:39:38.726Z,7.44
2019-02-27T01:42:10.702Z,7.41
2019-02-27T01:44:46.650Z,7.38
2019-02-27T01:47:19.994Z,7.35
2019-02-27T01:49:51.958Z,7.33
2019-02-27T01:52:24.257Z,7.30
2019-02-27T01:54:56.296Z,7.29
2019-02-27T01:57:28.621Z,7.26
2019-02-27T02:00:00.964Z,7.26
2019-02-27T02:02:34.926Z,7.22
2019-02-27T02:05:07.030Z,7.21
2019-02-27T02:07:40.282Z,7.19
2019-02-27T02:10:12.802Z,7.16
2019-02-27T02:12:48.144Z,7.12
2019-02-27T02:15:50.318Z,7.10
2019-02-27T02:18:36.249Z,7.07
2019-02-27T02:21:18.681Z,7.05
2019-02-27T02:24:16.072Z,7.03
2019-02-27T02:26:55.468Z,7.00
2019-02-27T02:29:57.321Z,6.97
2019-02-27T02:32:54.787Z,6.94
2019-02-27T02:35:46.839Z,6.91
2019-02-27T02:38:44.191Z,6.90
2019-02-27T02:41:23.555Z,6.86
2019-02-27T02:44:14.426Z,6.84
2019-02-27T02:47:21.290Z,6.84
2019-02-27T02:50:39.656Z,6.79
2019-02-27T02:53:27.897Z,6.74
2019-02-27T02:56:24.825Z,6.75
2019-02-27T02:59:24.542Z,6.73
2019-02-27T03:02:03.700Z,6.72
2019-02-27T03:05:04.316Z,6.71
2019-02-27T03:08:19.788Z,6.69
2019-02-27T03:11:19.050Z,6.64
2019-02-27T03:14:28.871Z,6.62
2019-02-27T03:17:38.424Z,6.59
2019-02-27T03:20:37.564Z,6.55
2019-02-27T03:23:19.665Z,6.52
2019-02-27T03:26:20.289Z,6.51
2019-02-27T03:29:15.504Z,6.49
2019-02-27T03:32:01.135Z,6.48
2019-02-27T03:35:05.953Z,6.47
2019-02-27T03:37:56.871Z,6.45
2019-02-27T03:41:07.542Z,6.43
2019-02-27T03:44:20.694Z,6.42
2019-02-27T03:47:15.633Z,6.38
2019-02-27T03:49:55.786Z,6.36
2019-02-27T03:52:48.857Z,6.35
2019-02-27T03:55:56.609Z,6.35
2019-02-27T03:58:35.988Z,6.31
2019-02-27T04:01:31.801Z,6.31
2019-02-27T04:04:58.098Z,6.29
2019-02-27T04:07:46.477Z,6.27
2019-02-27T04:10:18.434Z,6.26
2019-02-27T04:12:51.651Z,6.27
2019-02-27T04:15:24.053Z,6.27
2019-02-27T04:17:54.370Z,6.29
2019-02-27T04:20:26.337Z,6.29
2019-02-27T04:22:58.290Z,6.29
2019-02-27T04:25:31.545Z,6.30
2019-02-27T04:28:04.212Z,6.30
2019-02-27T04:30:36.206Z,6.31
2019-02-27T04:33:08.208Z,6.31
2019-02-27T04:35:40.244Z,6.33
2019-02-27T04:38:12.230Z,6.30
2019-02-27T04:40:44.769Z,6.29
2019-02-27T04:43:16.941Z,6.27
2019-02-27T04:45:48.930Z,6.25
2019-02-27T04:48:20.874Z,6.24
2019-02-27T04:50:53.235Z,6.22
2019-02-27T04:53:25.182Z,6.21
2019-02-27T04:55:57.164Z,6.19
2019-02-27T04:58:31.222Z,6.19
2019-02-27T05:01:02.857Z,6.16
2019-02-27T05:03:34.929Z,6.17
2019-02-27T05:06:07.197Z,6.16
2019-02-27T05:08:39.162Z,6.14
2019-02-27T05:11:13.949Z,6.12
2019-02-27T05:13:44.771Z,6.11
2019-02-27T05:16:16.729Z,6.10
2019-02-27T05:18:48.864Z,6.08
2019-02-27T05:21:20.911Z,6.05
2019-02-27T05:23:53.257Z,6.04
2019-02-27T05:26:27.254Z,6.03
2019-02-27T05:28:59.361Z,6.00
2019-02-27T05:31:31.318Z,5.98
2019-02-27T05:34:03.298Z,5.97
2019-02-27T05:36:35.266Z,5.97
2019-02-27T05:39:08.154Z,5.96
2019-02-27T05:41:40.135Z,5.97
2019-02-27T05:44:12.097Z,5.95
2019-02-27T05:46:44.406Z,5.93
2019-02-27T05:49:16.682Z,5.91
2019-02-27T05:51:48.648Z,5.89
2019-02-27T05:54:20.603Z,5.90
2019-02-27T05:56:52.569Z,5.89
2019-02-27T05:59:28.939Z,5.88
2019-02-27T06:01:58.219Z,5.89
2019-02-27T06:04:30.173Z,5.89
2019-02-27T06:07:02.148Z,5.89
2019-02-27T06:09:34.111Z,5.90
2019-02-27T06:12:06.881Z,5.91
2019-02-27T06:14:39.604Z,5.93
2019-02-27T06:17:12.844Z,5.92
2019-02-27T06:19:45.242Z,5.96
2019-02-27T06:22:17.204Z,5.97
2019-02-27T06:24:49.170Z,5.92
2019-02-27T06:27:21.139Z,5.99
2019-02-27T06:29:56.635Z,5.98
2019-02-27T06:32:27.434Z,5.99
2019-02-27T06:34:59.970Z,6.00
2019-02-27T06:37:32.084Z,6.01
2019-02-27T06:40:07.466Z,6.04
2019-02-27T06:42:40.442Z,6.07
2019-02-27T06:45:17.807Z,6.07
2019-02-27T06:47:49.783Z,6.09
2019-02-27T06:50:25.202Z,6.10
2019-02-27T06:52:55.407Z,6.12
2019-02-27T06:55:28.072Z,6.14
2019-02-27T06:58:01.106Z,6.17
2019-02-27T07:00:36.724Z,6.18
2019-02-27T07:03:06.886Z,6.21
2019-02-27T07:05:38.838Z,6.22
2019-02-27T07:08:10.808Z,6.24
2019-02-27T07:10:42.940Z,6.27
2019-02-27T07:13:15.264Z,6.28
2019-02-27T07:15:48.294Z,6.30
2019-02-27T07:18:21.607Z,6.31
2019-02-27T07:20:55.748Z,6.35
2019-02-27T07:23:27.921Z,6.38
2019-02-27T07:25:59.919Z,6.41
2019-02-27T07:28:32.003Z,6.44
2019-02-27T07:31:04.058Z,6.47
2019-02-27T07:33:37.971Z,6.52
2019-02-27T07:36:09.891Z,6.56
2019-02-27T07:38:41.845Z,6.61
2019-02-27T07:41:17.831Z,6.67
2019-02-27T07:43:48.500Z,6.73
2019-02-27T07:46:22.462Z,6.78
2019-02-27T07:48:56.426Z,6.83
2019-02-27T07:51:27.859Z,6.89
2019-02-27T07:53:59.889Z,6.94
2019-02-27T07:56:31.916Z,6.99
2019-02-27T07:59:03.883Z,7.04
2019-02-27T08:01:43.542Z,7.09
2019-02-27T08:04:10.707Z,7.14
2019-02-27T08:06:42.660Z,7.21
2019-02-27T08:09:14.796Z,7.27
2019-02-27T08:11:47.864Z,7.28
2019-02-27T08:14:19.937Z,7.40
2019-02-27T08:16:51.893Z,7.46
2019-02-27T08:19:24.211Z,7.53
2019-02-27T08:21:56.245Z,7.60
2019-02-27T08:24:28.562Z,7.67
2019-02-27T08:27:01.011Z,7.75
2019-02-27T08:29:32.994Z,7.84
2019-02-27T08:32:05.562Z,7.87
2019-02-27T08:34:38.056Z,7.93
2019-02-27T08:37:10.012Z,7.96
2019-02-27T08:39:41.993Z,8.01
2019-02-27T08:42:15.720Z,8.05
2019-02-27T08:44:48.151Z,8.11
2019-02-27T08:47:20.475Z,8.16
2019-02-27T08:49:57.746Z,8.23
2019-02-27T08:52:26.114Z,8.30
2019-02-27T08:54:58.089Z,8.38
2019-02-27T08:57:30.333Z,8.48
2019-02-27T09:00:02.329Z,8.58
2019-02-27T09:02:34.312Z,8.70
2019-02-27T09:05:09.590Z,8.82
2019-02-27T09:07:43.080Z,8.91
2019-02-27T09:10:23.168Z,9.01
2019-02-27T09:13:04.779Z,9.10
2019-02-27T09:15:28.751Z,9.19
2019-02-27T09:18:03.583Z,9.28
2019-02-27T09:20:35.568Z,9.37
2019-02-27T09:23:07.662Z,9.46
2019-02-27T09:25:39.697Z,9.55
2019-02-27T09:28:11.646Z,9.63
2019-02-27T09:30:43.606Z,9.71
2019-02-27T09:33:17.006Z,9.78
2019-02-27T09:35:49.298Z,9.84
2019-02-27T09:38:24.134Z,9.92
2019-02-27T09:40:55.182Z,9.99
2019-02-27T09:43:27.946Z,10.10
2019-02-27T09:45:59.993Z,10.20
2019-02-27T09:48:33.453Z,10.29
2019-02-27T09:51:07.884Z,10.38
2019-02-27T09:53:39.859Z,10.46
2019-02-27T09:56:11.892Z,10.54
2019-02-27T09:58:45.645Z,10.61
2019-02-27T10:01:18.716Z,10.67
2019-02-27T10:03:52.046Z,10.74
2019-02-27T10:06:24.636Z,10.81
2019-02-27T10:08:59.030Z,10.89
2019-02-27T10:11:30.663Z,10.97
2019-02-27T10:14:02.708Z,11.07
2019-02-27T10:16:35.383Z,11.15
2019-02-27T10:19:07.508Z,11.24
2019-02-27T10:21:41.253Z,11.29
2019-02-27T10:24:13.366Z,11.36
2019-02-27T10:26:45.424Z,11.42
2019-02-27T10:29:18.991Z,11.47
2019-02-27T10:31:51.172Z,11.52
2019-02-27T10:34:23.209Z,11.59
2019-02-27T10:36:55.411Z,11.64
2019-02-27T10:39:27.548Z,11.70
2019-02-27T10:41:59.605Z,11.75
2019-02-27T10:44:33.806Z,11.79
2019-02-27T10:47:05.987Z,11.84
2019-02-27T10:49:38.338Z,11.89
2019-02-27T10:52:10.527Z,11.93
2019-02-27T10:54:42.702Z,11.99
2019-02-27T10:57:14.809Z,12.06
2019-02-27T10:59:46.885Z,12.12
2019-02-27T11:02:19.011Z,12.17
2019-02-27T11:04:51.111Z,12.24
2019-02-27T11:07:23.085Z,12.29
2019-02-27T11:09:56.826Z,12.31
2019-02-27T11:12:29.428Z,12.39
2019-02-27T11:15:02.217Z,12.43
2019-02-27T11:17:34.367Z,12.47
2019-02-27T11:20:09.028Z,12.50
2019-02-27T11:22:41.145Z,12.52
2019-02-27T11:25:23.387Z,12.58
2019-02-27T11:27:55.353Z,12.63
2019-02-27T11:30:39.073Z,12.66
2019-02-27T11:33:11.301Z,12.70
2019-02-27T11:35:43.267Z,12.75
2019-02-27T11:38:15.251Z,12.81
2019-02-27T11:40:49.187Z,12.84
2019-02-27T11:43:20.924Z,12.87
2019-02-27T11:45:57.531Z,12.90
2019-02-27T11:48:28.159Z,12.92
2019-02-27T11:51:00.147Z,12.94
2019-02-27T11:53:35.699Z,12.99
2019-02-27T11:56:05.894Z,13.03
2019-02-27T11:58:39.064Z,13.07
2019-02-27T12:01:12.174Z,13.09
2019-02-27T12:03:45.921Z,13.10
2019-02-27T12:06:18.220Z,13.14
2019-02-27T12:08:50.182Z,13.17
2019-02-27T12:11:22.514Z,13.23
2019-02-27T12:13:54.875Z,13.28
2019-02-27T12:16:27.157Z,13.34
2019-02-27T12:18:59.428Z,13.37
2019-02-27T12:21:32.215Z,13.39
2019-02-27T12:24:05.413Z,13.40
2019-02-27T12:26:38.253Z,13.42
2019-02-27T12:29:10.923Z,13.45
2019-02-27T12:31:47.948Z,13.47
2019-02-27T12:34:16.638Z,13.48
2019-02-27T12:36:52.274Z,13.51
2019-02-27T12:39:22.443Z,13.51
2019-02-27T12:41:54.806Z,13.52
2019-02-27T12:44:26.875Z,13.54
2019-02-27T12:46:58.851Z,13.57
2019-02-27T12:49:30.815Z,13.60
2019-02-27T12:52:02.801Z,13.64
2019-02-27T12:54:34.941Z,13.66
2019-02-27T12:57:06.987Z,13.67
2019-02-27T12:59:38.945Z,13.69
2019-02-27T13:02:10.994Z,13.73
2019-02-27T13:04:42.987Z,13.76
2019-02-27T13:07:14.949Z,13.78
2019-02-27T13:09:46.916Z,13.78
2019-02-27T13:12:19.203Z,13.84
2019-02-27T13:14:51.161Z,13.90
2019-02-27T13:17:23.621Z,13.91
2019-02-27T13:19:55.602Z,13.94
2019-02-27T13:22:29.181Z,13.96
2019-02-27T13:25:01.659Z,13.96
2019-02-27T13:27:33.612Z,13.96
2019-02-27T13:30:16.327Z,13.96
2019-02-27T13:32:48.323Z,13.93
2019-02-27T13:35:22.997Z,13.92
2019-02-27T13:37:54.823Z,13.90
2019-02-27T13:40:29.304Z,13.94
2019-02-27T13:43:01.507Z,13.96
2019-02-27T13:45:34.078Z,13.98
2019-02-27T13:48:06.190Z,14.01
2019-02-27T13:50:38.274Z,14.02
2019-02-27T13:53:10.246Z,14.02
2019-02-27T13:55:42.222Z,14.04
2019-02-27T13:58:14.188Z,14.02
2019-02-27T14:00:46.168Z,14.01
2019-02-27T14:03:18.412Z,14.01
2019-02-27T14:05:50.405Z,14.01
2019-02-27T14:08:22.402Z,14.03
2019-02-27T14:10:54.383Z,14.04
2019-02-27T14:13:26.356Z,14.05
2019-02-27T14:16:00.953Z,14.05
2019-02-27T14:18:32.652Z,14.05
2019-02-27T14:21:04.695Z,14.06
2019-02-27T14:23:38.207Z,14.05
2019-02-27T14:26:10.507Z,14.05
2019-02-27T14:28:42.549Z,14.06
2019-02-27T14:31:14.530Z,14.06
2019-02-27T14:33:47.113Z,14.08
2019-02-27T14:36:20.110Z,14.06
2019-02-27T14:38:53.355Z,14.03
2019-02-27T14:41:26.044Z,14.01
2019-02-27T14:43:58.625Z,14.02
2019-02-27T14:46:30.611Z,14.01
2019-02-27T14:49:02.576Z,14.00
2019-02-27T14:51:34.558Z,14.00
2019-02-27T14:54:06.542Z,13.99
2019-02-27T14:56:41.720Z,13.96
2019-02-27T14:59:12.191Z,13.94
2019-02-27T15:01:48.397Z,13.94
2019-02-27T15:04:17.944Z,13.94
2019-02-27T15:06:51.254Z,13.91
2019-02-27T15:09:23.461Z,13.89
2019-02-27T15:11:55.459Z,13.88
2019-02-27T15:14:27.662Z,13.85
2019-02-27T15:16:59.724Z,13.84
2019-02-27T15:19:31.695Z,13.81
2019-02-27T15:22:03.696Z,13.79
2019-02-27T15:24:35.869Z,13.77
2019-02-27T15:27:08.019Z,13.77
2019-02-27T15:29:40.321Z,13.77
2019-02-27T15:32:12.382Z,13.76
2019-02-27T15:34:45.927Z,13.75
2019-02-27T15:37:18.440Z,13.71
2019-02-27T15:39:51.969Z,13.70
2019-02-27T15:42:24.159Z,13.68
2019-02-27T15:44:56.429Z,13.67
2019-02-27T15:47:30.735Z,13.64
2019-02-27T15:50:02.746Z,13.60
2019-02-27T15:52:34.728Z,13.56
2019-02-27T15:55:10.179Z,13.53
2019-02-27T15:57:42.163Z,13.48
2019-02-27T16:00:25.490Z,13.44
2019-02-27T16:02:57.762Z,13.39
2019-02-27T16:05:31.264Z,13.36
2019-02-27T16:08:03.812Z,13.32
2019-02-27T16:10:35.794Z,13.28
2019-02-27T16:13:07.932Z,13.25
2019-02-27T16:15:40.197Z,13.22
2019-02-27T16:18:13.776Z,13.19
2019-02-27T16:20:47.051Z,13.14
2019-02-27T16:23:19.480Z,13.10
2019-02-27T16:25:53.746Z,13.07
2019-02-27T16:28:25.473Z,13.04
2019-02-27T16:30:57.538Z,12.99
2019-02-27T16:33:29.942Z,12.95
2019-02-27T16:36:01.920Z,12.92
2019-02-27T16:38:33.891Z,12.89
2019-02-27T16:41:06.126Z,12.85
2019-02-27T16:43:38.115Z,12.80
2019-02-27T16:46:10.594Z,12.75
2019-02-27T16:48:43.057Z,12.67
2019-02-27T16:51:15.504Z,12.62
2019-02-27T16:53:52.360Z,12.56
2019-02-27T16:56:21.829Z,12.52
2019-02-27T16:58:53.826Z,12.47
2019-02-27T17:01:26.276Z,12.41
2019-02-27T17:04:00.570Z,12.37
2019-02-27T17:06:32.706Z,12.32
2019-02-27T17:09:07.186Z,12.28
2019-02-27T17:11:39.794Z,12.23
2019-02-27T17:14:11.782Z,12.18
2019-02-27T17:16:44.937Z,12.18
2019-02-27T17:19:17.635Z,12.16
2019-02-27T17:21:49.974Z,12.12
2019-02-27T17:24:22.102Z,12.06
2019-02-27T17:26:54.089Z,12.01
2019-02-27T17:29:26.760Z,11.96
2019-02-27T17:31:58.940Z,11.91
2019-02-27T17:34:30.901Z,11.88
2019-02-27T17:37:03.543Z,11.84
2019-02-27T17:39:36.881Z,11.80
2019-02-27T17:42:09.145Z,11.75
2019-02-27T17:44:41.108Z,11.71
2019-02-27T17:47:13.083Z,11.67
2019-02-27T17:49:45.063Z,11.65
2019-02-27T17:52:17.185Z,11.63
2019-02-27T17:54:49.148Z,11.61
2019-02-27T17:57:25.041Z,11.58
2019-02-27T17:59:54.970Z,11.56
2019-02-27T18:02:26.941Z,11.52
2019-02-27T18:04:59.285Z,11.49
2019-02-27T18:07:34.417Z,11.44
2019-02-27T18:10:08.928Z,11.41
2019-02-27T18:12:41.029Z,11.35
2019-02-27T18:15:21.840Z,11.32
2019-02-27T18:17:53.966Z,11.27
2019-02-27T18:20:25.929Z,11.23
2019-02-27T18:22:57.891Z,11.18
2019-02-27T18:25:29.892Z,11.10
2019-02-27T18:28:01.851Z,11.02
2019-02-27T18:30:34.284Z,10.93
2019-02-27T18:33:06.248Z,10.86
2019-02-27T18:35:38.219Z,10.79
2019-02-27T18:38:10.178Z,10.72
2019-02-27T18:40:42.886Z,10.65
2019-02-27T18:43:15.824Z,10.60
2019-02-27T18:45:48.236Z,10.55
2019-02-27T18:48:21.501Z,10.51
2019-02-27T18:50:55.937Z,10.47
2019-02-27T18:53:27.363Z,10.43
2019-02-27T18:56:01.986Z,10.42
2019-02-27T18:58:33.092Z,10.38
2019-02-27T19:01:09.483Z,10.36
2019-02-27T19:03:40.417Z,10.33
2019-02-27T19:06:13.120Z,10.30
2019-02-27T19:08:45.366Z,10.30
2019-02-27T19:11:17.326Z,10.32
2019-02-27T19:13:49.431Z,10.37
2019-02-27T19:16:21.810Z,10.46
2019-02-27T19:18:53.784Z,10.51
2019-02-27T19:21:25.779Z,10.57
2019-02-27T19:23:57.734Z,10.64
2019-02-27T19:26:29.847Z,10.69
2019-02-27T19:29:01.803Z,10.73
2019-02-27T19:31:34.140Z,10.77
2019-02-27T19:34:07.451Z,10.83
2019-02-27T19:36:40.391Z,10.89
2019-02-27T19:39:12.511Z,10.92
2019-02-27T19:41:44.615Z,10.96
2019-02-27T19:44:16.655Z,11.01
2019-02-27T19:46:48.968Z,11.05
2019-02-27T19:49:21.642Z,11.06
2019-02-27T19:51:54.897Z,11.08
2019-02-27T19:54:27.274Z,11.09
2019-02-27T19:56:59.226Z,11.11
2019-02-27T19:59:31.213Z,11.13
2019-02-27T20:02:03.506Z,11.15
2019-02-27T20:04:35.570Z,11.16
2019-02-27T20:07:07.860Z,11.17
2019-02-27T20:09:39.819Z,11.17
2019-02-27T20:12:12.808Z,11.16
2019-02-27T20:14:46.083Z,11.18
2019-02-27T20:17:18.482Z,11.17
2019-02-27T20:19:51.663Z,11.18
2019-02-27T20:22:23.730Z,11.18
2019-02-27T20:24:55.770Z,11.18
2019-02-27T20:27:27.730Z,11.18
2019-02-27T20:29:59.704Z,11.19
2019-02-27T20:32:32.107Z,11.19
2019-02-27T20:35:04.850Z,11.19
2019-02-27T20:37:37.159Z,11.18
2019-02-27T20:40:14.392Z,11.18
2019-02-27T20:42:49.766Z,11.19
2019-02-27T20:45:26.627Z,11.20
2019-02-27T20:48:01.696Z,11.22
2019-02-27T20:50:39.613Z,11.22
2019-02-27T20:53:14.241Z,11.22
2019-02-27T20:55:46.478Z,11.25
2019-02-27T20:58:19.423Z,11.26
2019-02-27T21:00:51.379Z,11.28
2019-02-27T21:03:26.673Z,11.31
2019-02-27T21:05:57.418Z,11.33
2019-02-27T21:08:36.134Z,11.35
2019-02-27T21:11:07.771Z,11.37
2019-02-27T21:13:39.761Z,11.38
2019-02-27T21:16:11.715Z,11.38
2019-02-27T21:18:43.759Z,11.38
2019-02-27T21:21:16.964Z,11.39
2019-02-27T21:23:49.387Z,11.38
2019-02-27T21:26:22.971Z,11.38
2019-02-27T21:28:58.535Z,11.38
2019-02-27T21:31:29.151Z,11.40
2019-02-27T21:34:01.109Z,11.41
2019-02-27T21:36:36.296Z,11.42
2019-02-27T21:39:07.700Z,11.43
2019-02-27T21:41:42.322Z,11.44
2019-02-27T21:44:13.416Z,11.44
2019-02-27T21:46:47.235Z,11.33
2019-02-27T21:49:19.048Z,11.39
2019-02-27T21:51:51.027Z,11.44
2019-02-27T21:54:23.010Z,11.44
2019-02-27T21:56:55.198Z,11.44
2019-02-27T21:59:27.809Z,11.44
2019-02-27T22:01:59.802Z,11.43
2019-02-27T22:04:31.775Z,11.42
2019-02-27T22:07:03.808Z,11.43
2019-02-27T22:09:35.797Z,11.41
2019-02-27T22:12:08.035Z,11.40
2019-02-27T22:14:40.024Z,11.40
2019-02-27T22:17:11.986Z,11.38
2019-02-27T22:19:43.953Z,11.37
2019-02-27T22:22:15.939Z,11.37
2019-02-27T22:24:47.909Z,11.35
2019-02-27T22:27:19.884Z,11.34
2019-02-27T22:29:51.939Z,11.31
2019-02-27T22:32:23.896Z,11.29
2019-02-27T22:34:55.898Z,11.27
2019-02-27T22:37:27.862Z,11.24
2019-02-27T22:39:59.878Z,11.22
2019-02-27T22:42:32.226Z,11.19
2019-02-27T22:45:05.733Z,11.18
2019-02-27T22:47:37.732Z,11.17
2019-02-27T22:50:13.601Z,11.16
2019-02-27T22:52:45.668Z,11.15
2019-02-27T22:55:17.649Z,11.11
2019-02-27T22:57:49.685Z,11.09
2019-02-27T23:00:51.522Z,11.06
2019-02-27T23:03:35.834Z,11.01
2019-02-27T23:06:11.854Z,10.98
2019-02-27T23:08:43.264Z,10.95
2019-02-27T23:11:15.646Z,10.93
2019-02-27T23:13:49.378Z,10.92
2019-02-27T23:16:21.489Z,10.90
2019-02-27T23:18:54.294Z,10.89
2019-02-27T23:21:27.314Z,10.86
2019-02-27T23:23:59.664Z,10.83
2019-02-27T23:26:31.637Z,10.82
2019-02-27T23:29:05.605Z,10.79
2019-02-27T23:31:37.272Z,10.75
2019-02-27T23:34:09.307Z,10.73
2019-02-27T23:36:41.278Z,10.70
2019-02-27T23:39:13.316Z,10.68
2019-02-27T23:41:45.553Z,10.66
2019-02-27T23:44:17.585Z,10.65
2019-02-27T23:46:51.732Z,10.63
2019-02-27T23:49:23.204Z,10.61
2019-02-27T23:51:55.180Z,10.60
2019-02-27T23:54:27.140Z,10.58
2019-02-27T23:56:59.118Z,10.56
2019-02-27T23:59:32.957Z,10.54
